Time;durP1;ratioP1;P1;durP2;ratioP2;P2;SDS_P1;SDS_P2;PMS_P1;PMS_P2;Temp;Humidity;BMP_temperature;BMP_pressure;BME280_temperature;BME280_humidity;BME280_pressure;Samples;Min_cycle;Max_cycle;Signal;HPM_P1;HPM_P2
2023/07/20 00:01:22;;;;;;;1.58;1.42;;;;;;;;;;4957127;29;20019;-86
2023/07/20 00:03:54;;;;;;;4.90;1.50;;;;;;;;;;4960984;28;20023;-86
2023/07/20 00:06:29;;;;;;;3.47;1.63;;;;;;;;;;4975311;28;20041;-85
2023/07/20 00:08:55;;;;;;;2.53;1.70;;;;;;;;;;4950814;28;20050;-87
2023/07/20 00:11:21;;;;;;;5.07;1.85;;;;;;;;;;4976237;28;20050;-86
2023/07/20 00:13:46;;;;;;;4.07;1.65;;;;;;;;;;4980054;28;20018;-85
2023/07/20 00:16:11;;;;;;;3.65;1.73;;;;;;;;;;4977575;28;20050;-87
2023/07/20 00:18:37;;;;;;;5.47;2.03;;;;;;;;;;4976923;28;20117;-85
2023/07/20 00:21:02;;;;;;;3.55;1.98;;;;;;;;;;4976533;28;20030;-87
2023/07/20 00:26:12;;;;;;;2.03;1.50;;;;;;;;;;4976893;28;20030;-86
2023/07/20 00:28:37;;;;;;;2.17;1.60;;;;;;;;;;4957175;28;20023;-86
2023/07/20 00:31:04;;;;;;;3.53;1.65;;;;;;;;;;4960693;28;20037;-86
2023/07/20 00:33:29;;;;;;;2.85;1.45;;;;;;;;;;4960543;28;20077;-87
2023/07/20 00:36:49;;;;;;;1.92;1.50;;;;;;;;;;4977073;28;20022;-87
2023/07/20 00:39:15;;;;;;;2.28;1.45;;;;;;;;;;4958852;28;20029;-86
2023/07/20 00:41:40;;;;;;;4.15;1.88;;;;;;;;;;4967010;28;20121;-84
2023/07/20 00:44:06;;;;;;;3.45;2.00;;;;;;;;;;4954953;28;20042;-86
2023/07/20 00:46:32;;;;;;;2.65;1.30;;;;;;;;;;4958906;28;20037;-86
2023/07/20 00:48:58;;;;;;;3.30;1.65;;;;;;;;;;4952901;28;20027;-86
2023/07/20 00:51:26;;;;;;;1.52;1.27;;;;;;;;;;4961429;28;20018;-86
2023/07/20 00:54:00;;;;;;;3.92;1.60;;;;;;;;;;4979419;28;20177;-86
2023/07/20 00:56:26;;;;;;;2.35;1.15;;;;;;;;;;4962208;28;20031;-86
2023/07/20 00:59:35;;;;;;;2.90;1.70;;;;;;;;;;4970080;28;20034;-87
2023/07/20 01:02:02;;;;;;;1.88;1.50;;;;;;;;;;4975971;28;20113;-86
2023/07/20 01:04:28;;;;;;;2.45;1.67;;;;;;;;;;4959660;28;20109;-86
2023/07/20 01:07:20;;;;;;;2.42;1.60;;;;;;;;;;4945166;28;20029;-86
2023/07/20 01:09:57;;;;;;;2.83;1.45;;;;;;;;;;4965148;28;20031;-87
2023/07/20 01:12:41;;;;;;;2.47;1.13;;;;;;;;;;4959367;28;20027;-86
2023/07/20 01:15:07;;;;;;;2.47;1.30;;;;;;;;;;4956314;28;20109;-86
2023/07/20 01:17:34;;;;;;;1.88;1.50;;;;;;;;;;4961587;28;20457;-85
2023/07/20 01:20:00;;;;;;;2.13;1.58;;;;;;;;;;4959669;28;20117;-86
2023/07/20 01:22:59;;;;;;;2.50;1.45;;;;;;;;;;4977215;28;20145;-86
2023/07/20 01:25:53;;;;;;;3.72;1.40;;;;;;;;;;4961770;28;20026;-85
2023/07/20 01:29:06;;;;;;;1.77;1.27;;;;;;;;;;4979552;28;20058;-85
2023/07/20 01:31:33;;;;;;;;;;;;;;;;;;4963398;28;20190;-87
2023/07/20 01:34:01;;;;;;;1.40;1.30;;;;;;;;;;4969416;28;19921;-86
2023/07/20 01:36:34;;;;;;;3.03;1.45;;;;;;;;;;4967658;28;20023;-87
2023/07/20 01:39:00;;;;;;;4.18;1.75;;;;;;;;;;4969027;28;20031;-87
2023/07/20 01:41:25;;;;;;;4.20;1.40;;;;;;;;;;4956887;29;20019;-86
2023/07/20 01:43:51;;;;;;;5.03;1.48;;;;;;;;;;4959729;28;20038;-84
2023/07/20 01:46:16;;;;;;;3.25;1.55;;;;;;;;;;4978929;28;20397;-86
2023/07/20 01:48:42;;;;;;;3.70;1.23;;;;;;;;;;4961396;28;20050;-85
2023/07/20 01:51:07;;;;;;;1.85;1.30;;;;;;;;;;4962156;28;20030;-85
2023/07/20 01:53:32;;;;;;;2.47;1.42;;;;;;;;;;4963290;28;20034;-84
2023/07/20 01:55:58;;;;;;;4.70;1.30;;;;;;;;;;4983004;28;20073;-84
2023/07/20 01:58:24;;;;;;;2.00;1.52;;;;;;;;;;4979015;28;20078;-84
2023/07/20 02:00:50;;;;;;;2.17;1.20;;;;;;;;;;4960503;28;20168;-84
2023/07/20 02:03:15;;;;;;;2.72;1.55;;;;;;;;;;4959942;28;20069;-85
2023/07/20 02:05:44;;;;;;;1.85;1.40;;;;;;;;;;4959855;28;20489;-85
2023/07/20 02:08:09;;;;;;;4.40;2.03;;;;;;;;;;4973134;28;20035;-85
2023/07/20 02:10:35;;;;;;;2.58;1.60;;;;;;;;;;4959060;28;20026;-85
2023/07/20 02:13:00;;;;;;;2.05;1.40;;;;;;;;;;4960074;28;20087;-85
2023/07/20 02:15:26;;;;;;;2.53;1.73;;;;;;;;;;4976350;28;20126;-85
2023/07/20 02:17:51;;;;;;;3.08;1.65;;;;;;;;;;4961694;28;20384;-85
2023/07/20 02:20:17;;;;;;;6.03;1.48;;;;;;;;;;4977809;28;20075;-85
2023/07/20 02:22:43;;;;;;;3.45;1.63;;;;;;;;;;4959961;28;20024;-85
2023/07/20 02:25:08;;;;;;;5.47;1.90;;;;;;;;;;4968380;28;20023;-87
2023/07/20 02:27:34;;;;;;;1.73;1.60;;;;;;;;;;4956318;28;20029;-85
2023/07/20 02:30:00;;;;;;;2.55;1.70;;;;;;;;;;4975918;28;20094;-86
2023/07/20 02:32:25;;;;;;;1.73;1.48;;;;;;;;;;4973799;28;20023;-85
2023/07/20 02:34:51;;;;;;;2.80;1.48;;;;;;;;;;4982523;28;20038;-87
2023/07/20 02:37:17;;;;;;;4.07;1.70;;;;;;;;;;4965815;28;20074;-86
2023/07/20 02:39:43;;;;;;;2.08;1.35;;;;;;;;;;4959041;28;20026;-87
2023/07/20 02:42:08;;;;;;;3.50;1.48;;;;;;;;;;4974817;28;20118;-88
2023/07/20 02:44:33;;;;;;;5.95;1.60;;;;;;;;;;4974426;28;20026;-85
2023/07/20 02:46:59;;;;;;;3.10;1.58;;;;;;;;;;4970874;28;20026;-85
2023/07/20 02:49:24;;;;;;;2.13;1.60;;;;;;;;;;4975700;28;20410;-85
2023/07/20 02:51:49;;;;;;;2.80;1.70;;;;;;;;;;4956749;28;20385;-87
2023/07/20 02:54:15;;;;;;;3.40;1.80;;;;;;;;;;4975459;28;20022;-85
2023/07/20 02:56:40;;;;;;;1.65;1.40;;;;;;;;;;4958517;28;20052;-86
2023/07/20 02:59:06;;;;;;;3.72;1.55;;;;;;;;;;4982925;28;20098;-85
2023/07/20 03:01:31;;;;;;;2.35;1.55;;;;;;;;;;4975013;28;20078;-85
2023/07/20 03:03:57;;;;;;;2.15;1.67;;;;;;;;;;4959673;28;20027;-85
2023/07/20 03:06:22;;;;;;;2.83;1.80;;;;;;;;;;4955978;28;20444;-85
2023/07/20 03:08:50;;;;;;;4.72;2.03;;;;;;;;;;4957617;28;20023;-85
2023/07/20 03:11:16;;;;;;;6.20;1.75;;;;;;;;;;4958301;28;20023;-86
2023/07/20 03:13:42;;;;;;;4.40;1.73;;;;;;;;;;4957604;28;20113;-85
2023/07/20 03:16:11;;;;;;;4.20;1.50;;;;;;;;;;4961893;28;20072;-86
2023/07/20 03:18:38;;;;;;;3.05;1.60;;;;;;;;;;4959127;28;20406;-86
2023/07/20 03:21:04;;;;;;;4.53;1.50;;;;;;;;;;4969408;28;20030;-85
2023/07/20 03:23:29;;;;;;;4.07;1.80;;;;;;;;;;4980012;28;20038;-86
2023/07/20 03:25:55;;;;;;;7.13;1.80;;;;;;;;;;4982956;28;20030;-86
2023/07/20 03:28:20;;;;;;;5.85;1.70;;;;;;;;;;4972452;28;20023;-86
2023/07/20 03:30:46;;;;;;;5.65;1.65;;;;;;;;;;4965988;28;20031;-85
2023/07/20 03:33:11;;;;;;;2.40;1.55;;;;;;;;;;4979158;28;20041;-85
2023/07/20 03:35:37;;;;;;;3.55;1.40;;;;;;;;;;4976355;28;20081;-86
2023/07/20 03:38:02;;;;;;;3.92;1.80;;;;;;;;;;4971104;28;20085;-84
2023/07/20 03:40:28;;;;;;;3.65;1.88;;;;;;;;;;4968797;28;20030;-85
2023/07/20 03:42:53;;;;;;;1.90;1.25;;;;;;;;;;4978138;28;20066;-86
2023/07/20 03:45:18;;;;;;;2.50;1.83;;;;;;;;;;4990623;28;20050;-86
2023/07/20 03:47:44;;;;;;;3.50;1.80;;;;;;;;;;4963968;28;20023;-87
2023/07/20 03:50:10;;;;;;;2.42;1.45;;;;;;;;;;4982502;28;20046;-84
2023/07/20 03:52:35;;;;;;;4.95;1.65;;;;;;;;;;4984805;28;20025;-85
2023/07/20 03:55:01;;;;;;;3.55;1.75;;;;;;;;;;4976324;28;20023;-86
2023/07/20 03:57:27;;;;;;;2.47;1.52;;;;;;;;;;4979492;28;20152;-84
2023/07/20 03:59:52;;;;;;;5.15;2.05;;;;;;;;;;4958629;28;20038;-85
2023/07/20 04:02:18;;;;;;;2.42;1.63;;;;;;;;;;4952284;28;20027;-85
2023/07/20 04:04:43;;;;;;;3.30;1.50;;;;;;;;;;4967810;28;20102;-86
2023/07/20 04:07:09;;;;;;;2.15;1.45;;;;;;;;;;4978540;28;20031;-86
2023/07/20 04:09:34;;;;;;;2.78;1.52;;;;;;;;;;4977653;28;20031;-87
2023/07/20 04:12:00;;;;;;;5.22;1.45;;;;;;;;;;4962060;28;20018;-85
2023/07/20 04:14:25;;;;;;;4.63;1.77;;;;;;;;;;4982342;28;20018;-86
2023/07/20 04:16:51;;;;;;;3.58;1.77;;;;;;;;;;4980682;28;20038;-86
2023/07/20 04:19:17;;;;;;;1.48;1.38;;;;;;;;;;4982173;28;20102;-87
2023/07/20 04:21:43;;;;;;;2.10;1.80;;;;;;;;;;4961430;29;20031;-86
2023/07/20 04:24:09;;;;;;;4.05;1.83;;;;;;;;;;4992960;28;20072;-87
2023/07/20 04:26:35;;;;;;;2.95;1.70;;;;;;;;;;4987056;28;20362;-85
2023/07/20 04:29:00;;;;;;;1.75;1.40;;;;;;;;;;4958284;28;20105;-85
2023/07/20 04:31:26;;;;;;;4.15;1.90;;;;;;;;;;4964157;28;20027;-85
2023/07/20 04:33:51;;;;;;;2.97;1.92;;;;;;;;;;4986962;28;20118;-85
2023/07/20 04:36:19;;;;;;;6.38;1.58;;;;;;;;;;4963984;28;20027;-85
2023/07/20 04:38:47;;;;;;;4.68;1.80;;;;;;;;;;4968571;28;20233;-85
2023/07/20 04:41:13;;;;;;;3.58;1.98;;;;;;;;;;4981068;28;20497;-84
2023/07/20 04:43:43;;;;;;;2.65;1.60;;;;;;;;;;4989511;28;20019;-86
2023/07/20 04:46:09;;;;;;;2.13;1.65;;;;;;;;;;5003796;28;20015;-84
2023/07/20 04:48:34;;;;;;;5.85;1.80;;;;;;;;;;4975347;28;20023;-84
2023/07/20 04:50:59;;;;;;;4.78;2.00;;;;;;;;;;4996060;28;20030;-84
2023/07/20 04:53:25;;;;;;;1.63;1.45;;;;;;;;;;4988080;28;20030;-85
2023/07/20 04:55:51;;;;;;;3.08;1.88;;;;;;;;;;4997718;28;20057;-85
2023/07/20 04:58:18;;;;;;;2.92;1.75;;;;;;;;;;4995100;28;20027;-85
2023/07/20 05:00:44;;;;;;;5.40;1.60;;;;;;;;;;4985305;28;20021;-84
2023/07/20 05:03:09;;;;;;;2.50;1.60;;;;;;;;;;4983363;28;20113;-84
2023/07/20 05:05:34;;;;;;;2.63;1.77;;;;;;;;;;4991734;28;20034;-85
2023/07/20 05:08:00;;;;;;;4.97;1.70;;;;;;;;;;4965242;28;20023;-84
2023/07/20 05:10:25;;;;;;;1.48;1.35;;;;;;;;;;4977575;28;20026;-86
2023/07/20 05:12:51;;;;;;;5.97;1.80;;;;;;;;;;4966149;28;20050;-86
2023/07/20 05:15:16;;;;;;;2.88;1.65;;;;;;;;;;4980608;28;20528;-85
2023/07/20 05:17:41;;;;;;;3.15;1.60;;;;;;;;;;4962531;28;20023;-87
2023/07/20 05:20:09;;;;;;;3.45;2.15;;;;;;;;;;4979028;28;20078;-87
2023/07/20 05:22:35;;;;;;;3.15;1.73;;;;;;;;;;4977644;28;20022;-88
2023/07/20 05:25:01;;;;;;;5.20;2.10;;;;;;;;;;4952836;28;20445;-88
2023/07/20 05:27:26;;;;;;;4.97;1.65;;;;;;;;;;4962505;28;20051;-87
2023/07/20 05:29:51;;;;;;;3.28;2.00;;;;;;;;;;4961934;28;20029;-86
2023/07/20 05:32:16;;;;;;;2.70;1.58;;;;;;;;;;4956851;28;20413;-86
2023/07/20 05:34:42;;;;;;;2.47;1.88;;;;;;;;;;4958627;29;20114;-85
2023/07/20 05:37:07;;;;;;;2.88;1.50;;;;;;;;;;4963436;28;20559;-87
2023/07/20 05:39:33;;;;;;;3.47;1.65;;;;;;;;;;4995901;28;20053;-86
2023/07/20 05:41:58;;;;;;;3.30;1.67;;;;;;;;;;4972735;28;20023;-86
2023/07/20 05:44:24;;;;;;;1.40;1.30;;;;;;;;;;4960828;28;20031;-86
2023/07/20 05:46:49;;;;;;;4.72;1.77;;;;;;;;;;4980219;28;20022;-86
2023/07/20 05:49:14;;;;;;;4.30;2.00;;;;;;;;;;4980042;28;20019;-86
2023/07/20 05:51:39;;;;;;;3.92;1.73;;;;;;;;;;4967489;28;20023;-86
2023/07/20 05:54:05;;;;;;;2.67;1.70;;;;;;;;;;4978593;28;20035;-86
2023/07/20 05:56:31;;;;;;;5.80;1.33;;;;;;;;;;4962890;28;20035;-85
2023/07/20 05:58:56;;;;;;;3.15;1.73;;;;;;;;;;4962606;28;20019;-87
2023/07/20 06:01:21;;;;;;;5.22;1.60;;;;;;;;;;4961482;28;20051;-85
2023/07/20 06:03:47;;;;;;;4.18;1.73;;;;;;;;;;4985489;28;20042;-85
2023/07/20 06:06:12;;;;;;;3.63;2.00;;;;;;;;;;4969524;28;20087;-84
2023/07/20 06:08:38;;;;;;;3.00;1.60;;;;;;;;;;4959597;28;20038;-85
2023/07/20 06:11:03;;;;;;;1.90;1.60;;;;;;;;;;4981944;28;20027;-85
2023/07/20 06:13:29;;;;;;;2.70;1.50;;;;;;;;;;4979468;28;20074;-84
2023/07/20 06:15:55;;;;;;;4.05;1.63;;;;;;;;;;4979266;28;20109;-87
2023/07/20 06:18:22;;;;;;;4.68;1.73;;;;;;;;;;4959712;28;20511;-85
2023/07/20 06:20:52;;;;;;;5.45;1.65;;;;;;;;;;4984201;28;20035;-85
2023/07/20 06:23:19;;;;;;;6.40;1.70;;;;;;;;;;4956091;29;20023;-86
2023/07/20 06:25:44;;;;;;;6.70;1.67;;;;;;;;;;4963121;28;20045;-85
2023/07/20 06:28:09;;;;;;;3.20;1.73;;;;;;;;;;4958952;28;20404;-85
2023/07/20 06:30:38;;;;;;;3.13;1.60;;;;;;;;;;4955670;28;20032;-85
2023/07/20 06:33:03;;;;;;;6.07;1.48;;;;;;;;;;4958378;28;20031;-87
2023/07/20 06:35:28;;;;;;;3.70;1.58;;;;;;;;;;4970105;28;20358;-86
2023/07/20 06:37:54;;;;;;;3.85;1.60;;;;;;;;;;4983617;28;20026;-87
2023/07/20 06:40:21;;;;;;;2.72;1.33;;;;;;;;;;4964209;28;20038;-85
2023/07/20 06:42:49;;;;;;;2.95;1.50;;;;;;;;;;4956680;28;20034;-86
2023/07/20 06:45:21;;;;;;;5.18;1.30;;;;;;;;;;4964300;28;20026;-87
2023/07/20 06:47:49;;;;;;;2.30;1.45;;;;;;;;;;4971836;28;20030;-85
2023/07/20 06:50:18;;;;;;;2.28;1.38;;;;;;;;;;4973349;28;20027;-84
2023/07/20 06:52:44;;;;;;;7.40;1.75;;;;;;;;;;4986862;28;20078;-85
2023/07/20 06:55:10;;;;;;;4.47;1.60;;;;;;;;;;4993490;28;20022;-84
2023/07/20 06:57:38;;;;;;;2.35;1.58;;;;;;;;;;4993519;28;20014;-83
2023/07/20 07:00:06;;;;;;;3.53;1.65;;;;;;;;;;4983012;28;20087;-85
2023/07/20 07:02:31;;;;;;;4.65;1.60;;;;;;;;;;4980034;28;20103;-85
2023/07/20 07:04:57;;;;;;;3.88;1.50;;;;;;;;;;4976713;28;20031;-85
2023/07/20 07:07:22;;;;;;;5.65;1.42;;;;;;;;;;4977133;28;20026;-87
2023/07/20 07:09:48;;;;;;;1.58;1.30;;;;;;;;;;4959644;28;20034;-86
2023/07/20 07:12:14;;;;;;;1.77;1.40;;;;;;;;;;4982479;28;20101;-84
2023/07/20 07:14:39;;;;;;;5.07;1.30;;;;;;;;;;4975759;28;20030;-84
2023/07/20 07:17:05;;;;;;;3.22;1.63;;;;;;;;;;4978352;28;20031;-84
2023/07/20 07:19:31;;;;;;;2.67;1.60;;;;;;;;;;4981460;28;20477;-83
2023/07/20 07:21:56;;;;;;;2.67;1.50;;;;;;;;;;4975332;28;20027;-85
2023/07/20 07:27:43;;;;;;;5.05;1.52;;;;;;;;;;4971602;28;20163;-84
2023/07/20 07:30:08;;;;;;;2.85;1.30;;;;;;;;;;4970313;28;20066;-84
2023/07/20 07:32:34;;;;;;;2.08;1.20;;;;;;;;;;4959792;29;20011;-85
2023/07/20 07:35:00;;;;;;;3.10;1.58;;;;;;;;;;4984819;28;20089;-84
2023/07/20 07:37:25;;;;;;;4.15;1.63;;;;;;;;;;4966239;28;20042;-83
2023/07/20 07:39:51;;;;;;;1.75;1.40;;;;;;;;;;4963222;28;20425;-84
2023/07/20 07:42:16;;;;;;;2.75;1.45;;;;;;;;;;4983270;28;20031;-84
2023/07/20 07:44:41;;;;;;;4.57;1.48;;;;;;;;;;4959556;28;20031;-84
2023/07/20 07:47:07;;;;;;;5.35;1.48;;;;;;;;;;4947821;28;20051;-82
2023/07/20 07:49:32;;;;;;;2.10;1.58;;;;;;;;;;4986078;28;20345;-84
2023/07/20 07:51:58;;;;;;;2.63;1.45;;;;;;;;;;4986385;28;20026;-83
2023/07/20 07:54:23;;;;;;;2.80;1.20;;;;;;;;;;4982540;28;20034;-86
2023/07/20 07:56:57;;;;;;;2.65;1.48;;;;;;;;;;4987402;28;20116;-85
2023/07/20 07:59:42;;;;;;;3.30;1.50;;;;;;;;;;4982311;28;20030;-84
2023/07/20 08:02:07;;;;;;;1.95;1.50;;;;;;;;;;4962738;28;20034;-87
2023/07/20 08:04:33;;;;;;;3.63;1.42;;;;;;;;;;4955192;28;20027;-84
2023/07/20 08:06:59;;;;;;;6.97;1.70;;;;;;;;;;4953483;29;20482;-85
2023/07/20 08:09:25;;;;;;;1.95;1.48;;;;;;;;;;4963243;28;20077;-84
2023/07/20 08:11:51;;;;;;;1.45;1.35;;;;;;;;;;4987893;28;19999;-84
2023/07/20 08:14:16;;;;;;;2.95;1.35;;;;;;;;;;4978498;28;20053;-85
2023/07/20 08:16:43;;;;;;;3.28;1.48;;;;;;;;;;4988616;28;20016;-85
2023/07/20 08:19:08;;;;;;;4.40;1.63;;;;;;;;;;4977260;28;20063;-86
2023/07/20 08:21:36;;;;;;;3.28;1.50;;;;;;;;;;4987731;28;20480;-85
2023/07/20 08:24:07;;;;;;;2.95;1.38;;;;;;;;;;4978213;28;20041;-83
2023/07/20 08:26:33;;;;;;;4.68;1.48;;;;;;;;;;4966915;28;20023;-83
2023/07/20 08:28:58;;;;;;;5.95;1.67;;;;;;;;;;4959144;28;20081;-86
2023/07/20 08:31:24;;;;;;;3.33;1.60;;;;;;;;;;4972073;28;20031;-86
2023/07/20 08:33:49;;;;;;;3.25;1.38;;;;;;;;;;4962722;28;20061;-85
2023/07/20 08:36:15;;;;;;;2.22;1.48;;;;;;;;;;4971320;28;20048;-85
2023/07/20 08:38:41;;;;;;;5.68;1.75;;;;;;;;;;4978803;28;20025;-85
2023/07/20 08:41:07;;;;;;;2.42;1.60;;;;;;;;;;4985288;28;20023;-85
2023/07/20 08:43:33;;;;;;;4.13;1.58;;;;;;;;;;4963285;28;20038;-86
2023/07/20 08:45:59;;;;;;;4.78;1.38;;;;;;;;;;4963042;28;20046;-86
2023/07/20 08:48:24;;;;;;;3.05;1.30;;;;;;;;;;4972214;28;20030;-85
2023/07/20 08:50:55;;;;;;;2.92;1.45;;;;;;;;;;4962597;28;20114;-86
2023/07/20 08:53:21;;;;;;;2.50;1.60;;;;;;;;;;4962613;28;20054;-85
2023/07/20 08:55:49;;;;;;;1.70;1.23;;;;;;;;;;4959155;28;20027;-84
2023/07/20 08:58:15;;;;;;;1.35;1.25;;;;;;;;;;4981078;28;20037;-86
2023/07/20 09:00:41;;;;;;;6.20;1.40;;;;;;;;;;4979167;28;20030;-85
2023/07/20 09:03:08;;;;;;;1.75;1.17;;;;;;;;;;4962945;28;20022;-86
2023/07/20 09:05:35;;;;;;;2.80;1.38;;;;;;;;;;4970545;28;20027;-87
2023/07/20 09:08:00;;;;;;;1.65;1.50;;;;;;;;;;4979946;28;20058;-87
2023/07/20 09:10:26;;;;;;;2.33;1.33;;;;;;;;;;4963934;28;20434;-86
2023/07/20 09:12:51;;;;;;;2.08;1.17;;;;;;;;;;4983744;28;20034;-87
2023/07/20 09:15:17;;;;;;;1.52;1.25;;;;;;;;;;4975143;28;20031;-88
2023/07/20 09:17:47;;;;;;;5.30;1.35;;;;;;;;;;4984534;28;20073;-86
2023/07/20 09:20:14;;;;;;;2.63;1.50;;;;;;;;;;4961721;28;20042;-87
2023/07/20 09:22:40;;;;;;;3.95;1.42;;;;;;;;;;4981677;28;20023;-87
2023/07/20 09:25:16;;;;;;;3.92;1.20;;;;;;;;;;4981001;28;20120;-87
2023/07/20 09:28:18;;;;;;;1.40;1.30;;;;;;;;;;4964541;28;20110;-87
2023/07/20 09:30:44;;;;;;;1.75;1.27;;;;;;;;;;4969712;28;20107;-85
2023/07/20 09:33:19;;;;;;;1.75;1.17;;;;;;;;;;4969552;28;20061;-85
2023/07/20 09:35:45;;;;;;;1.45;0.98;;;;;;;;;;4978141;28;20369;-86
2023/07/20 09:38:10;;;;;;;1.60;1.02;;;;;;;;;;4959353;28;20492;-85
2023/07/20 09:40:39;;;;;;;2.17;1.15;;;;;;;;;;4960461;28;20030;-88
2023/07/20 09:43:08;;;;;;;1.20;1.10;;;;;;;;;;4957646;28;20098;-87
2023/07/20 09:45:36;;;;;;;3.22;1.15;;;;;;;;;;4967262;28;20023;-86
2023/07/20 09:48:08;;;;;;;0.98;0.90;;;;;;;;;;4968390;28;20039;-86
2023/07/20 09:50:55;;;;;;;1.38;0.90;;;;;;;;;;4972297;28;20058;-86
2023/07/20 09:54:04;;;;;;;3.63;1.25;;;;;;;;;;4982886;28;20042;-86
2023/07/20 09:56:52;;;;;;;2.00;1.20;;;;;;;;;;4958143;28;20529;-87
2023/07/20 09:59:17;;;;;;;3.17;1.23;;;;;;;;;;4967238;28;20055;-86
2023/07/20 10:01:44;;;;;;;3.13;1.50;;;;;;;;;;4960643;28;20682;-87
2023/07/20 10:04:12;;;;;;;1.75;1.30;;;;;;;;;;4957731;28;20525;-86
2023/07/20 10:06:43;;;;;;;0.95;0.95;;;;;;;;;;4982484;28;20030;-88
2023/07/20 10:09:10;;;;;;;3.63;1.17;;;;;;;;;;4963839;28;20460;-86
2023/07/20 10:11:42;;;;;;;1.30;1.20;;;;;;;;;;4985871;28;20038;-85
2023/07/20 10:14:11;;;;;;;0.73;0.73;;;;;;;;;;4970116;28;20034;-86
2023/07/20 10:16:48;;;;;;;3.00;1.30;;;;;;;;;;4976527;28;20118;-88
2023/07/20 10:19:28;;;;;;;0.98;0.88;;;;;;;;;;4983239;28;20086;-86
2023/07/20 10:22:01;;;;;;;2.08;1.05;;;;;;;;;;4964567;28;20030;-86
2023/07/20 10:24:27;;;;;;;0.73;0.73;;;;;;;;;;4961235;28;20027;-86
2023/07/20 10:26:55;;;;;;;2.75;1.00;;;;;;;;;;4957663;28;20023;-86
2023/07/20 10:29:21;;;;;;;1.00;0.77;;;;;;;;;;4960582;28;20469;-88
2023/07/20 10:31:47;;;;;;;2.15;1.05;;;;;;;;;;4980227;28;20033;-86
2023/07/20 10:34:12;;;;;;;1.38;1.02;;;;;;;;;;4975846;28;20062;-86
2023/07/20 10:36:51;;;;;;;1.60;1.23;;;;;;;;;;4955181;28;20058;-86
2023/07/20 10:39:32;;;;;;;1.30;1.00;;;;;;;;;;4959159;28;20106;-86
2023/07/20 10:42:07;;;;;;;1.75;1.10;;;;;;;;;;4971506;28;20078;-86
2023/07/20 10:44:33;;;;;;;0.60;0.60;;;;;;;;;;4958015;28;20062;-86
2023/07/20 10:47:05;;;;;;;2.55;1.30;;;;;;;;;;4978104;28;20030;-88
2023/07/20 10:49:34;;;;;;;1.83;1.17;;;;;;;;;;4958158;28;20085;-86
2023/07/20 10:52:04;;;;;;;1.25;1.15;;;;;;;;;;4967092;28;20019;-87
2023/07/20 10:54:29;;;;;;;1.95;1.20;;;;;;;;;;4978741;28;20105;-87
2023/07/20 10:56:56;;;;;;;2.70;1.10;;;;;;;;;;4956374;28;20023;-88
2023/07/20 10:59:24;;;;;;;3.50;0.93;;;;;;;;;;4978067;28;20037;-86
2023/07/20 11:02:01;;;;;;;2.38;1.02;;;;;;;;;;4986146;28;20023;-87
2023/07/20 11:04:44;;;;;;;1.92;1.00;;;;;;;;;;4980870;28;20105;-87
2023/07/20 11:07:14;;;;;;;3.47;1.20;;;;;;;;;;4980740;28;20145;-88
2023/07/20 11:09:41;;;;;;;0.90;0.90;;;;;;;;;;4986589;28;20078;-86
2023/07/20 11:12:16;;;;;;;1.15;0.75;;;;;;;;;;4967313;28;20357;-86
2023/07/20 11:14:56;;;;;;;1.50;1.00;;;;;;;;;;4956838;28;20112;-87
2023/07/20 11:17:29;;;;;;;1.85;1.20;;;;;;;;;;4976376;28;20054;-87
2023/07/20 11:20:00;;;;;;;3.63;1.20;;;;;;;;;;4956198;28;20063;-84
2023/07/20 11:22:26;;;;;;;0.85;0.85;;;;;;;;;;4976906;28;20027;-85
2023/07/20 11:24:55;;;;;;;2.33;0.90;;;;;;;;;;4973373;28;20572;-88
2023/07/20 11:27:22;;;;;;;1.75;0.90;;;;;;;;;;4963404;28;20122;-87
2023/07/20 11:29:48;;;;;;;1.98;0.90;;;;;;;;;;4964391;28;20023;-88
2023/07/20 11:32:23;;;;;;;2.53;0.95;;;;;;;;;;4980489;28;20049;-88
2023/07/20 11:34:49;;;;;;;1.10;0.90;;;;;;;;;;4982932;28;20049;-86
2023/07/20 11:37:15;;;;;;;2.17;1.00;;;;;;;;;;4961491;28;20026;-86
2023/07/20 11:39:40;;;;;;;0.88;0.88;;;;;;;;;;4977923;28;20031;-86
2023/07/20 11:42:06;;;;;;;0.95;0.82;;;;;;;;;;4978613;28;20086;-88
2023/07/20 11:44:32;;;;;;;3.83;1.00;;;;;;;;;;4978558;28;20038;-86
2023/07/20 11:47:08;;;;;;;2.20;1.10;;;;;;;;;;4975618;28;20027;-85
2023/07/20 11:49:43;;;;;;;2.95;1.25;;;;;;;;;;4978156;28;20115;-85
2023/07/20 11:52:15;;;;;;;6.95;1.40;;;;;;;;;;4965542;28;20118;-86
2023/07/20 11:54:41;;;;;;;1.45;1.35;;;;;;;;;;4962769;28;20035;-85
2023/07/20 11:57:07;;;;;;;1.15;1.00;;;;;;;;;;4985013;28;20038;-87
2023/07/20 11:59:33;;;;;;;1.17;0.95;;;;;;;;;;4961592;28;20031;-85
2023/07/20 12:02:01;;;;;;;3.28;1.10;;;;;;;;;;4975439;28;20087;-86
2023/07/20 12:04:26;;;;;;;1.80;1.17;;;;;;;;;;4977777;28;20508;-85
2023/07/20 12:06:54;;;;;;;1.38;1.02;;;;;;;;;;4960810;28;20034;-86
2023/07/20 12:09:20;;;;;;;1.50;0.90;;;;;;;;;;4985842;28;20027;-86
2023/07/20 12:11:45;;;;;;;5.10;1.00;;;;;;;;;;4971025;28;20022;-86
2023/07/20 12:14:11;;;;;;;7.03;1.33;;;;;;;;;;4981323;28;20027;-86
2023/07/20 12:16:40;;;;;;;1.02;0.70;;;;;;;;;;4981369;28;20035;-86
2023/07/20 12:19:10;;;;;;;1.10;0.95;;;;;;;;;;4957173;28;20031;-87
2023/07/20 12:21:37;;;;;;;1.30;1.08;;;;;;;;;;4960096;28;20027;-87
2023/07/20 12:24:03;;;;;;;1.75;0.98;;;;;;;;;;4961940;28;20045;-88
2023/07/20 12:26:32;;;;;;;0.93;0.70;;;;;;;;;;4980325;28;20023;-87
2023/07/20 12:28:57;;;;;;;1.40;0.85;;;;;;;;;;4984795;28;20026;-87
2023/07/20 12:31:24;;;;;;;1.30;1.20;;;;;;;;;;4982687;28;20536;-86
2023/07/20 12:33:50;;;;;;;1.77;1.00;;;;;;;;;;4972674;28;20029;-86
2023/07/20 12:36:17;;;;;;;2.67;1.35;;;;;;;;;;4973348;28;20058;-86
2023/07/20 12:38:42;;;;;;;2.42;1.20;;;;;;;;;;4953602;28;20023;-86
2023/07/20 12:41:12;;;;;;;5.63;1.25;;;;;;;;;;4964167;28;20033;-86
2023/07/20 12:43:37;;;;;;;4.22;1.20;;;;;;;;;;4954412;28;20030;-86
2023/07/20 12:46:03;;;;;;;3.05;1.48;;;;;;;;;;4955990;28;20035;-87
2023/07/20 12:48:29;;;;;;;1.75;0.85;;;;;;;;;;4977062;28;20031;-86
2023/07/20 12:50:54;;;;;;;0.98;0.98;;;;;;;;;;4969261;28;20018;-87
2023/07/20 12:53:21;;;;;;;5.50;1.17;;;;;;;;;;4978113;28;20082;-86
2023/07/20 12:55:46;;;;;;;2.25;0.95;;;;;;;;;;4991469;28;20034;-86
2023/07/20 12:58:13;;;;;;;4.60;1.00;;;;;;;;;;4977561;28;20030;-86
2023/07/20 13:00:38;;;;;;;1.42;1.23;;;;;;;;;;4985966;28;20027;-86
2023/07/20 13:03:04;;;;;;;0.95;0.90;;;;;;;;;;4988845;28;20030;-86
2023/07/20 13:05:31;;;;;;;2.47;1.00;;;;;;;;;;4984294;28;20122;-85
2023/07/20 13:08:00;;;;;;;2.55;1.33;;;;;;;;;;4965767;28;20019;-86
2023/07/20 13:10:25;;;;;;;1.10;1.00;;;;;;;;;;4961945;28;20033;-87
2023/07/20 13:12:50;;;;;;;1.17;0.98;;;;;;;;;;4989932;28;20023;-86
2023/07/20 13:15:17;;;;;;;2.20;0.90;;;;;;;;;;4980355;28;20026;-87
2023/07/20 13:17:43;;;;;;;1.65;1.00;;;;;;;;;;4981958;28;20070;-87
2023/07/20 13:20:10;;;;;;;4.22;1.10;;;;;;;;;;4987681;28;20041;-86
2023/07/20 13:22:37;;;;;;;1.42;1.00;;;;;;;;;;4956494;28;20478;-85
2023/07/20 13:25:02;;;;;;;2.72;1.20;;;;;;;;;;4973343;28;20022;-86
2023/07/20 13:27:28;;;;;;;4.32;1.08;;;;;;;;;;4981619;28;20655;-87
2023/07/20 13:29:54;;;;;;;1.88;1.15;;;;;;;;;;4960570;28;20023;-87
2023/07/20 13:32:19;;;;;;;5.70;1.48;;;;;;;;;;4975297;28;20027;-86
2023/07/20 13:34:45;;;;;;;2.20;1.20;;;;;;;;;;4988732;28;20085;-86
2023/07/20 13:37:12;;;;;;;1.38;1.00;;;;;;;;;;4968546;28;20106;-87
2023/07/20 13:39:38;;;;;;;1.63;1.00;;;;;;;;;;4968421;28;20038;-86
2023/07/20 13:42:05;;;;;;;2.97;1.50;;;;;;;;;;4975018;28;20026;-86
2023/07/20 13:44:40;;;;;;;1.70;1.35;;;;;;;;;;4963537;28;20042;-85
2023/07/20 13:47:05;;;;;;;1.10;1.00;;;;;;;;;;4967201;28;20110;-86
2023/07/20 13:49:32;;;;;;;2.35;1.10;;;;;;;;;;4972634;28;20030;-85
2023/07/20 13:51:57;;;;;;;1.90;1.05;;;;;;;;;;4975382;28;20050;-83
2023/07/20 13:54:24;;;;;;;1.20;1.10;;;;;;;;;;4973027;28;20404;-86
2023/07/20 13:56:50;;;;;;;1.02;0.93;;;;;;;;;;4969675;28;20089;-83
2023/07/20 13:59:15;;;;;;;2.80;1.23;;;;;;;;;;4968869;28;20035;-85
2023/07/20 14:01:41;;;;;;;1.98;1.25;;;;;;;;;;4975475;28;20461;-86
2023/07/20 14:04:07;;;;;;;3.63;1.40;;;;;;;;;;4965272;28;20059;-86
2023/07/20 14:06:33;;;;;;;2.83;1.20;;;;;;;;;;4978667;28;20019;-85
2023/07/20 14:08:59;;;;;;;1.92;1.20;;;;;;;;;;4980389;28;20030;-86
2023/07/20 14:11:25;;;;;;;3.28;1.58;;;;;;;;;;4981245;28;20027;-83
2023/07/20 14:13:53;;;;;;;3.15;1.00;;;;;;;;;;4963359;28;20023;-83
2023/07/20 14:16:19;;;;;;;1.60;1.23;;;;;;;;;;4963552;28;20014;-85
2023/07/20 14:18:47;;;;;;;2.40;0.93;;;;;;;;;;4964876;28;20027;-84
2023/07/20 14:21:12;;;;;;;1.98;1.00;;;;;;;;;;4966389;28;20034;-83
2023/07/20 14:23:38;;;;;;;6.90;1.20;;;;;;;;;;4970948;28;20110;-83
2023/07/20 14:26:05;;;;;;;1.33;1.17;;;;;;;;;;4988146;28;20092;-84
2023/07/20 14:28:31;;;;;;;1.08;0.98;;;;;;;;;;4971975;28;20080;-84
2023/07/20 14:30:57;;;;;;;1.63;0.95;;;;;;;;;;4953922;28;20031;-86
2023/07/20 14:33:43;;;;;;;2.15;1.13;;;;;;;;;;4967044;28;20053;-85
2023/07/20 14:36:09;;;;;;;1.38;1.00;;;;;;;;;;4953590;28;20042;-83
2023/07/20 14:38:35;;;;;;;1.50;1.33;;;;;;;;;;4968343;28;20026;-86
2023/07/20 14:41:03;;;;;;;1.30;0.82;;;;;;;;;;4980966;28;20085;-85
2023/07/20 14:43:32;;;;;;;3.03;0.90;;;;;;;;;;4976505;28;20101;-86
2023/07/20 14:45:58;;;;;;;2.08;1.17;;;;;;;;;;4967271;28;20094;-85
2023/07/20 14:48:23;;;;;;;1.17;0.88;;;;;;;;;;4948457;29;20129;-84
2023/07/20 14:50:48;;;;;;;1.23;1.10;;;;;;;;;;4983224;28;20049;-85
2023/07/20 14:53:14;;;;;;;1.10;0.82;;;;;;;;;;4983775;28;20032;-87